sensor_id;sensor_type;location;lat;lon;timestamp;P1;durP1;ratioP1;P2;durP2;ratioP2
50872;SDS011;72604;40.088;18.346;2024-01-16T00:00:05;10.95;;;4.97;;
50872;SDS011;72604;40.088;18.346;2024-01-16T00:03:47;10.65;;;4.60;;
50872;SDS011;72604;40.088;18.346;2024-01-16T00:07:29;12.27;;;4.57;;
50872;SDS011;72604;40.088;18.346;2024-01-16T00:11:11;16.27;;;4.93;;
50872;SDS011;72604;40.088;18.346;2024-01-16T00:14:52;10.48;;;4.40;;
50872;SDS011;72604;40.088;18.346;2024-01-16T00:18:34;13.05;;;4.88;;
50872;SDS011;72604;40.088;18.346;2024-01-16T00:22:15;7.57;;;4.32;;
50872;SDS011;72604;40.088;18.346;2024-01-16T00:25:57;14.27;;;5.10;;
50872;SDS011;72604;40.088;18.346;2024-01-16T00:29:38;11.88;;;4.72;;
50872;SDS011;72604;40.088;18.346;2024-01-16T00:33:19;13.88;;;4.70;;
50872;SDS011;72604;40.088;18.346;2024-01-16T00:37:01;10.52;;;4.53;;
50872;SDS011;72604;40.088;18.346;2024-01-16T00:40:41;16.85;;;4.57;;
50872;SDS011;72604;40.088;18.346;2024-01-16T00:44:24;16.30;;;4.50;;
50872;SDS011;72604;40.088;18.346;2024-01-16T00:48:05;16.10;;;4.50;;
50872;SDS011;72604;40.088;18.346;2024-01-16T00:51:46;13.57;;;4.93;;
50872;SDS011;72604;40.088;18.346;2024-01-16T00:55:27;23.33;;;5.32;;
50872;SDS011;72604;40.088;18.346;2024-01-16T00:59:08;18.88;;;5.10;;
50872;SDS011;72604;40.088;18.346;2024-01-16T01:02:50;15.82;;;4.60;;
50872;SDS011;72604;40.088;18.346;2024-01-16T01:06:31;13.27;;;5.13;;
50872;SDS011;72604;40.088;18.346;2024-01-16T01:10:13;20.45;;;5.68;;
50872;SDS011;72604;40.088;18.346;2024-01-16T01:13:54;18.33;;;5.43;;
50872;SDS011;72604;40.088;18.346;2024-01-16T01:17:35;14.50;;;4.70;;
50872;SDS011;72604;40.088;18.346;2024-01-16T01:21:17;14.40;;;4.38;;
50872;SDS011;72604;40.088;18.346;2024-01-16T01:24:58;17.67;;;4.40;;
50872;SDS011;72604;40.088;18.346;2024-01-16T01:28:40;12.65;;;4.65;;
50872;SDS011;72604;40.088;18.346;2024-01-16T01:32:21;16.95;;;4.97;;
50872;SDS011;72604;40.088;18.346;2024-01-16T01:36:02;15.02;;;4.85;;
50872;SDS011;72604;40.088;18.346;2024-01-16T01:39:45;20.85;;;5.85;;
50872;SDS011;72604;40.088;18.346;2024-01-16T01:43:26;14.98;;;4.65;;
50872;SDS011;72604;40.088;18.346;2024-01-16T01:47:07;16.23;;;4.80;;
50872;SDS011;72604;40.088;18.346;2024-01-16T01:50:49;19.90;;;4.95;;
50872;SDS011;72604;40.088;18.346;2024-01-16T01:54:30;15.48;;;4.40;;
50872;SDS011;72604;40.088;18.346;2024-01-16T01:58:13;26.08;;;5.07;;
50872;SDS011;72604;40.088;18.346;2024-01-16T02:01:54;25.88;;;5.53;;
50872;SDS011;72604;40.088;18.346;2024-01-16T02:05:34;17.77;;;5.18;;
50872;SDS011;72604;40.088;18.346;2024-01-16T02:09:16;16.83;;;5.03;;
50872;SDS011;72604;40.088;18.346;2024-01-16T02:12:57;21.00;;;4.95;;
50872;SDS011;72604;40.088;18.346;2024-01-16T02:16:40;19.00;;;4.93;;
50872;SDS011;72604;40.088;18.346;2024-01-16T02:20:21;17.65;;;5.00;;
50872;SDS011;72604;40.088;18.346;2024-01-16T02:24:04;19.63;;;5.75;;
50872;SDS011;72604;40.088;18.346;2024-01-16T02:27:46;18.10;;;5.22;;
50872;SDS011;72604;40.088;18.346;2024-01-16T02:31:27;20.27;;;5.20;;
50872;SDS011;72604;40.088;18.346;2024-01-16T02:35:08;19.48;;;5.78;;
50872;SDS011;72604;40.088;18.346;2024-01-16T02:38:50;22.45;;;5.18;;
50872;SDS011;72604;40.088;18.346;2024-01-16T02:42:32;20.30;;;4.70;;
50872;SDS011;72604;40.088;18.346;2024-01-16T02:46:13;23.35;;;5.57;;
50872;SDS011;72604;40.088;18.346;2024-01-16T02:49:54;18.73;;;5.03;;
50872;SDS011;72604;40.088;18.346;2024-01-16T02:53:35;23.67;;;5.85;;
50872;SDS011;72604;40.088;18.346;2024-01-16T02:57:16;19.80;;;5.75;;
50872;SDS011;72604;40.088;18.346;2024-01-16T03:00:58;24.25;;;5.85;;
50872;SDS011;72604;40.088;18.346;2024-01-16T03:04:39;20.70;;;6.28;;
50872;SDS011;72604;40.088;18.346;2024-01-16T03:08:20;23.50;;;5.95;;
50872;SDS011;72604;40.088;18.346;2024-01-16T03:12:01;20.05;;;5.32;;
50872;SDS011;72604;40.088;18.346;2024-01-16T03:15:43;19.17;;;5.38;;
50872;SDS011;72604;40.088;18.346;2024-01-16T03:19:25;23.40;;;5.80;;
50872;SDS011;72604;40.088;18.346;2024-01-16T03:23:06;21.58;;;6.45;;
50872;SDS011;72604;40.088;18.346;2024-01-16T03:26:47;21.65;;;6.20;;
50872;SDS011;72604;40.088;18.346;2024-01-16T03:30:29;21.08;;;8.90;;
50872;SDS011;72604;40.088;18.346;2024-01-16T03:34:09;18.10;;;6.20;;
50872;SDS011;72604;40.088;18.346;2024-01-16T03:37:52;21.27;;;5.50;;
50872;SDS011;72604;40.088;18.346;2024-01-16T03:41:33;16.38;;;5.22;;
50872;SDS011;72604;40.088;18.346;2024-01-16T03:45:14;16.73;;;5.10;;
50872;SDS011;72604;40.088;18.346;2024-01-16T03:48:56;25.00;;;6.05;;
50872;SDS011;72604;40.088;18.346;2024-01-16T03:52:36;15.98;;;5.20;;
50872;SDS011;72604;40.088;18.346;2024-01-16T03:56:19;18.00;;;6.28;;
50872;SDS011;72604;40.088;18.346;2024-01-16T03:59:59;17.48;;;5.57;;
50872;SDS011;72604;40.088;18.346;2024-01-16T04:03:42;25.83;;;6.22;;
50872;SDS011;72604;40.088;18.346;2024-01-16T04:07:23;21.77;;;7.60;;
50872;SDS011;72604;40.088;18.346;2024-01-16T04:11:10;16.98;;;5.75;;
50872;SDS011;72604;40.088;18.346;2024-01-16T04:14:52;24.30;;;8.13;;
50872;SDS011;72604;40.088;18.346;2024-01-16T04:18:35;20.98;;;6.35;;
50872;SDS011;72604;40.088;18.346;2024-01-16T04:22:16;23.08;;;6.22;;
50872;SDS011;72604;40.088;18.346;2024-01-16T04:25:57;20.98;;;6.57;;
50872;SDS011;72604;40.088;18.346;2024-01-16T04:29:38;22.52;;;6.75;;
50872;SDS011;72604;40.088;18.346;2024-01-16T04:33:21;24.90;;;7.20;;
50872;SDS011;72604;40.088;18.346;2024-01-16T04:37:02;25.15;;;6.70;;
50872;SDS011;72604;40.088;18.346;2024-01-16T04:40:43;15.73;;;6.18;;
50872;SDS011;72604;40.088;18.346;2024-01-16T04:44:24;21.42;;;5.97;;
50872;SDS011;72604;40.088;18.346;2024-01-16T04:48:05;22.23;;;6.63;;
50872;SDS011;72604;40.088;18.346;2024-01-16T04:51:48;22.42;;;6.63;;
50872;SDS011;72604;40.088;18.346;2024-01-16T04:55:29;25.45;;;7.75;;
50872;SDS011;72604;40.088;18.346;2024-01-16T04:59:10;20.05;;;6.63;;
50872;SDS011;72604;40.088;18.346;2024-01-16T05:02:52;24.98;;;8.77;;
50872;SDS011;72604;40.088;18.346;2024-01-16T05:06:34;22.00;;;7.90;;
50872;SDS011;72604;40.088;18.346;2024-01-16T05:10:16;15.25;;;6.90;;
50872;SDS011;72604;40.088;18.346;2024-01-16T05:13:57;21.02;;;8.07;;
50872;SDS011;72604;40.088;18.346;2024-01-16T05:17:38;27.52;;;9.07;;
50872;SDS011;72604;40.088;18.346;2024-01-16T05:21:19;24.88;;;8.02;;
50872;SDS011;72604;40.088;18.346;2024-01-16T05:25:00;26.80;;;11.77;;
50872;SDS011;72604;40.088;18.346;2024-01-16T05:28:42;22.45;;;8.32;;
50872;SDS011;72604;40.088;18.346;2024-01-16T05:32:23;19.95;;;7.93;;
50872;SDS011;72604;40.088;18.346;2024-01-16T05:36:04;21.02;;;7.72;;
50872;SDS011;72604;40.088;18.346;2024-01-16T05:39:45;20.98;;;9.05;;
50872;SDS011;72604;40.088;18.346;2024-01-16T05:43:26;16.02;;;8.00;;
50872;SDS011;72604;40.088;18.346;2024-01-16T05:47:10;16.83;;;7.63;;
50872;SDS011;72604;40.088;18.346;2024-01-16T05:50:51;22.50;;;9.10;;
50872;SDS011;72604;40.088;18.346;2024-01-16T05:54:31;47.15;;;24.88;;
50872;SDS011;72604;40.088;18.346;2024-01-16T05:58:12;26.58;;;13.27;;
50872;SDS011;72604;40.088;18.346;2024-01-16T06:01:53;26.38;;;13.75;;
50872;SDS011;72604;40.088;18.346;2024-01-16T06:05:36;36.33;;;14.40;;
50872;SDS011;72604;40.088;18.346;2024-01-16T06:09:16;22.95;;;11.88;;
50872;SDS011;72604;40.088;18.346;2024-01-16T06:12:58;26.77;;;13.18;;
50872;SDS011;72604;40.088;18.346;2024-01-16T06:16:39;30.48;;;15.23;;
50872;SDS011;72604;40.088;18.346;2024-01-16T06:20:19;14.48;;;8.90;;
50872;SDS011;72604;40.088;18.346;2024-01-16T06:24:04;21.23;;;10.25;;
50872;SDS011;72604;40.088;18.346;2024-01-16T06:27:46;18.80;;;8.80;;
50872;SDS011;72604;40.088;18.346;2024-01-16T06:31:27;14.23;;;8.25;;
50872;SDS011;72604;40.088;18.346;2024-01-16T06:35:08;16.90;;;8.18;;
50872;SDS011;72604;40.088;18.346;2024-01-16T06:38:49;34.55;;;19.20;;
50872;SDS011;72604;40.088;18.346;2024-01-16T06:42:35;30.05;;;17.90;;
50872;SDS011;72604;40.088;18.346;2024-01-16T06:46:16;31.23;;;10.90;;
50872;SDS011;72604;40.088;18.346;2024-01-16T06:49:59;55.67;;;14.80;;
50872;SDS011;72604;40.088;18.346;2024-01-16T06:53:40;32.70;;;11.35;;
50872;SDS011;72604;40.088;18.346;2024-01-16T06:57:21;13.68;;;6.15;;
50872;SDS011;72604;40.088;18.346;2024-01-16T07:01:04;37.53;;;24.13;;
50872;SDS011;72604;40.088;18.346;2024-01-16T07:04:45;31.02;;;23.38;;
50872;SDS011;72604;40.088;18.346;2024-01-16T07:08:26;23.35;;;16.98;;
50872;SDS011;72604;40.088;18.346;2024-01-16T07:12:08;23.15;;;15.35;;
50872;SDS011;72604;40.088;18.346;2024-01-16T07:15:48;18.05;;;10.27;;
50872;SDS011;72604;40.088;18.346;2024-01-16T07:19:30;18.13;;;9.93;;
50872;SDS011;72604;40.088;18.346;2024-01-16T07:23:11;16.73;;;10.40;;
50872;SDS011;72604;40.088;18.346;2024-01-16T07:26:52;150.15;;;23.73;;
50872;SDS011;72604;40.088;18.346;2024-01-16T07:30:34;105.97;;;20.58;;
50872;SDS011;72604;40.088;18.346;2024-01-16T07:34:16;107.97;;;20.92;;
50872;SDS011;72604;40.088;18.346;2024-01-16T07:38:02;81.90;;;15.95;;
50872;SDS011;72604;40.088;18.346;2024-01-16T07:41:44;43.33;;;11.35;;
50872;SDS011;72604;40.088;18.346;2024-01-16T07:45:25;35.80;;;8.93;;
50872;SDS011;72604;40.088;18.346;2024-01-16T07:49:06;21.35;;;6.63;;
50872;SDS011;72604;40.088;18.346;2024-01-16T07:52:47;22.23;;;7.97;;
50872;SDS011;72604;40.088;18.346;2024-01-16T07:56:29;16.70;;;6.38;;
50872;SDS011;72604;40.088;18.346;2024-01-16T08:00:10;16.08;;;6.15;;
50872;SDS011;72604;40.088;18.346;2024-01-16T08:03:52;13.27;;;5.35;;
50872;SDS011;72604;40.088;18.346;2024-01-16T08:07:32;13.23;;;5.78;;
50872;SDS011;72604;40.088;18.346;2024-01-16T08:11:14;10.95;;;5.47;;
50872;SDS011;72604;40.088;18.346;2024-01-16T08:14:57;9.85;;;5.25;;
50872;SDS011;72604;40.088;18.346;2024-01-16T08:18:38;10.70;;;4.22;;
50872;SDS011;72604;40.088;18.346;2024-01-16T08:22:19;9.70;;;3.70;;
50872;SDS011;72604;40.088;18.346;2024-01-16T08:26:00;7.80;;;3.47;;
50872;SDS011;72604;40.088;18.346;2024-01-16T08:29:41;12.30;;;4.28;;
50872;SDS011;72604;40.088;18.346;2024-01-16T08:33:23;16.17;;;4.32;;
50872;SDS011;72604;40.088;18.346;2024-01-16T08:37:06;9.32;;;3.38;;
50872;SDS011;72604;40.088;18.346;2024-01-16T08:40:46;9.90;;;3.13;;
50872;SDS011;72604;40.088;18.346;2024-01-16T08:44:27;7.30;;;2.50;;
50872;SDS011;72604;40.088;18.346;2024-01-16T08:48:08;4.05;;;2.25;;
50872;SDS011;72604;40.088;18.346;2024-01-16T08:51:51;5.55;;;2.20;;
50872;SDS011;72604;40.088;18.346;2024-01-16T08:55:31;5.85;;;2.10;;
50872;SDS011;72604;40.088;18.346;2024-01-16T08:59:13;5.45;;;2.03;;
50872;SDS011;72604;40.088;18.346;2024-01-16T09:02:53;5.63;;;1.80;;
50872;SDS011;72604;40.088;18.346;2024-01-16T09:06:34;6.47;;;1.77;;
50872;SDS011;72604;40.088;18.346;2024-01-16T09:10:17;5.35;;;2.05;;
50872;SDS011;72604;40.088;18.346;2024-01-16T09:13:58;6.60;;;1.98;;
50872;SDS011;72604;40.088;18.346;2024-01-16T09:17:40;6.50;;;2.20;;
50872;SDS011;72604;40.088;18.346;2024-01-16T09:21:21;6.57;;;2.33;;
50872;SDS011;72604;40.088;18.346;2024-01-16T09:25:03;5.15;;;1.98;;
50872;SDS011;72604;40.088;18.346;2024-01-16T09:28:46;5.80;;;2.20;;
50872;SDS011;72604;40.088;18.346;2024-01-16T09:32:27;7.97;;;2.20;;
50872;SDS011;72604;40.088;18.346;2024-01-16T09:36:08;5.05;;;2.17;;
50872;SDS011;72604;40.088;18.346;2024-01-16T09:39:49;6.03;;;2.00;;
50872;SDS011;72604;40.088;18.346;2024-01-16T09:43:30;6.50;;;2.38;;
50872;SDS011;72604;40.088;18.346;2024-01-16T09:47:13;5.78;;;2.22;;
50872;SDS011;72604;40.088;18.346;2024-01-16T09:50:55;6.65;;;2.55;;
50872;SDS011;72604;40.088;18.346;2024-01-16T09:54:36;6.13;;;2.45;;
50872;SDS011;72604;40.088;18.346;2024-01-16T09:58:17;5.50;;;2.40;;
50872;SDS011;72604;40.088;18.346;2024-01-16T10:02:01;9.38;;;2.85;;
50872;SDS011;72604;40.088;18.346;2024-01-16T10:05:48;7.90;;;2.55;;
50872;SDS011;72604;40.088;18.346;2024-01-16T10:09:29;9.07;;;3.03;;
50872;SDS011;72604;40.088;18.346;2024-01-16T10:13:10;4.57;;;2.35;;
50872;SDS011;72604;40.088;18.346;2024-01-16T10:16:54;6.65;;;2.08;;
50872;SDS011;72604;40.088;18.346;2024-01-16T10:20:36;8.15;;;3.05;;
50872;SDS011;72604;40.088;18.346;2024-01-16T10:24:18;7.10;;;1.88;;
50872;SDS011;72604;40.088;18.346;2024-01-16T10:28:02;3.50;;;1.50;;
50872;SDS011;72604;40.088;18.346;2024-01-16T10:31:43;5.57;;;1.67;;
50872;SDS011;72604;40.088;18.346;2024-01-16T10:35:24;4.88;;;1.88;;
50872;SDS011;72604;40.088;18.346;2024-01-16T10:39:06;6.25;;;1.90;;
50872;SDS011;72604;40.088;18.346;2024-01-16T10:42:56;6.30;;;2.03;;
50872;SDS011;72604;40.088;18.346;2024-01-16T10:46:37;8.55;;;1.90;;
50872;SDS011;72604;40.088;18.346;2024-01-16T10:50:18;6.13;;;1.95;;
50872;SDS011;72604;40.088;18.346;2024-01-16T10:53:59;5.53;;;1.85;;
50872;SDS011;72604;40.088;18.346;2024-01-16T10:57:41;3.92;;;2.08;;
50872;SDS011;72604;40.088;18.346;2024-01-16T11:01:23;7.90;;;2.10;;
50872;SDS011;72604;40.088;18.346;2024-01-16T11:05:05;6.10;;;2.35;;
50872;SDS011;72604;40.088;18.346;2024-01-16T11:08:47;6.55;;;2.70;;
50872;SDS011;72604;40.088;18.346;2024-01-16T11:12:29;8.15;;;2.92;;
50872;SDS011;72604;40.088;18.346;2024-01-16T11:16:10;6.78;;;2.20;;
50872;SDS011;72604;40.088;18.346;2024-01-16T11:19:52;6.55;;;2.50;;
50872;SDS011;72604;40.088;18.346;2024-01-16T11:23:41;7.07;;;2.72;;
50872;SDS011;72604;40.088;18.346;2024-01-16T11:27:22;6.30;;;3.00;;
50872;SDS011;72604;40.088;18.346;2024-01-16T11:31:16;8.68;;;3.58;;
50872;SDS011;72604;40.088;18.346;2024-01-16T11:35:09;8.93;;;3.80;;
50872;SDS011;72604;40.088;18.346;2024-01-16T11:38:52;6.63;;;3.15;;
50872;SDS011;72604;40.088;18.346;2024-01-16T11:42:36;8.50;;;3.88;;
50872;SDS011;72604;40.088;18.346;2024-01-16T11:46:22;6.55;;;3.08;;
50872;SDS011;72604;40.088;18.346;2024-01-16T11:50:27;7.28;;;3.10;;
50872;SDS011;72604;40.088;18.346;2024-01-16T11:54:09;7.70;;;3.15;;
50872;SDS011;72604;40.088;18.346;2024-01-16T11:57:53;5.80;;;3.08;;
50872;SDS011;72604;40.088;18.346;2024-01-16T12:01:40;8.38;;;2.85;;
50872;SDS011;72604;40.088;18.346;2024-01-16T12:05:24;5.30;;;2.78;;
50872;SDS011;72604;40.088;18.346;2024-01-16T12:09:12;7.88;;;3.42;;
50872;SDS011;72604;40.088;18.346;2024-01-16T12:12:56;8.93;;;2.92;;
50872;SDS011;72604;40.088;18.346;2024-01-16T12:16:39;8.95;;;2.63;;
50872;SDS011;72604;40.088;18.346;2024-01-16T12:20:20;8.07;;;2.80;;
50872;SDS011;72604;40.088;18.346;2024-01-16T12:24:03;6.03;;;3.50;;
50872;SDS011;72604;40.088;18.346;2024-01-16T12:27:46;5.88;;;2.80;;
50872;SDS011;72604;40.088;18.346;2024-01-16T12:31:34;7.70;;;3.10;;
50872;SDS011;72604;40.088;18.346;2024-01-16T12:35:19;6.43;;;3.03;;
50872;SDS011;72604;40.088;18.346;2024-01-16T12:39:00;6.50;;;3.00;;
50872;SDS011;72604;40.088;18.346;2024-01-16T12:42:42;10.25;;;6.03;;
50872;SDS011;72604;40.088;18.346;2024-01-16T12:46:23;10.38;;;3.90;;
50872;SDS011;72604;40.088;18.346;2024-01-16T12:50:04;18.35;;;10.27;;
50872;SDS011;72604;40.088;18.346;2024-01-16T12:53:45;5.20;;;3.22;;
50872;SDS011;72604;40.088;18.346;2024-01-16T12:57:27;7.53;;;3.60;;
50872;SDS011;72604;40.088;18.346;2024-01-16T13:01:22;4.82;;;3.00;;
50872;SDS011;72604;40.088;18.346;2024-01-16T13:05:07;6.40;;;2.92;;
50872;SDS011;72604;40.088;18.346;2024-01-16T13:08:49;6.95;;;3.17;;
50872;SDS011;72604;40.088;18.346;2024-01-16T13:12:30;12.65;;;6.28;;
50872;SDS011;72604;40.088;18.346;2024-01-16T13:16:13;16.13;;;10.52;;
50872;SDS011;72604;40.088;18.346;2024-01-16T13:19:56;13.00;;;7.78;;
50872;SDS011;72604;40.088;18.346;2024-01-16T13:23:37;10.82;;;4.70;;
50872;SDS011;72604;40.088;18.346;2024-01-16T13:27:18;14.95;;;7.53;;
50872;SDS011;72604;40.088;18.346;2024-01-16T13:30:59;15.95;;;5.00;;
50872;SDS011;72604;40.088;18.346;2024-01-16T13:34:40;15.07;;;8.07;;
50872;SDS011;72604;40.088;18.346;2024-01-16T13:38:27;15.95;;;9.20;;
50872;SDS011;72604;40.088;18.346;2024-01-16T13:42:08;8.65;;;3.88;;
50872;SDS011;72604;40.088;18.346;2024-01-16T13:45:49;12.32;;;5.07;;
50872;SDS011;72604;40.088;18.346;2024-01-16T13:49:30;12.63;;;3.60;;
50872;SDS011;72604;40.088;18.346;2024-01-16T13:53:12;8.30;;;3.33;;
50872;SDS011;72604;40.088;18.346;2024-01-16T13:56:56;11.10;;;3.88;;
50872;SDS011;72604;40.088;18.346;2024-01-16T14:00:37;13.95;;;3.50;;
50872;SDS011;72604;40.088;18.346;2024-01-16T14:04:18;12.23;;;3.60;;
50872;SDS011;72604;40.088;18.346;2024-01-16T14:08:00;12.82;;;6.47;;
50872;SDS011;72604;40.088;18.346;2024-01-16T14:11:41;9.52;;;3.45;;
50872;SDS011;72604;40.088;18.346;2024-01-16T14:15:23;10.75;;;4.28;;
50872;SDS011;72604;40.088;18.346;2024-01-16T14:19:05;14.80;;;6.68;;
50872;SDS011;72604;40.088;18.346;2024-01-16T14:22:46;14.43;;;8.57;;
50872;SDS011;72604;40.088;18.346;2024-01-16T14:26:27;15.88;;;10.88;;
50872;SDS011;72604;40.088;18.346;2024-01-16T14:30:09;9.07;;;3.80;;
50872;SDS011;72604;40.088;18.346;2024-01-16T14:33:51;14.48;;;9.48;;
50872;SDS011;72604;40.088;18.346;2024-01-16T14:37:32;12.63;;;7.10;;
50872;SDS011;72604;40.088;18.346;2024-01-16T14:41:13;15.93;;;7.20;;
50872;SDS011;72604;40.088;18.346;2024-01-16T14:44:57;20.30;;;7.60;;
50872;SDS011;72604;40.088;18.346;2024-01-16T14:48:42;22.00;;;12.20;;
50872;SDS011;72604;40.088;18.346;2024-01-16T14:52:25;23.95;;;15.98;;
50872;SDS011;72604;40.088;18.346;2024-01-16T14:56:06;12.30;;;5.18;;
50872;SDS011;72604;40.088;18.346;2024-01-16T14:59:48;14.98;;;8.05;;
50872;SDS011;72604;40.088;18.346;2024-01-16T15:03:29;16.95;;;8.38;;
50872;SDS011;72604;40.088;18.346;2024-01-16T15:07:10;15.38;;;9.02;;
50872;SDS011;72604;40.088;18.346;2024-01-16T15:10:52;12.88;;;5.43;;
50872;SDS011;72604;40.088;18.346;2024-01-16T15:14:32;9.10;;;4.00;;
50872;SDS011;72604;40.088;18.346;2024-01-16T15:18:14;11.25;;;4.32;;
50872;SDS011;72604;40.088;18.346;2024-01-16T15:21:54;20.73;;;13.32;;
50872;SDS011;72604;40.088;18.346;2024-01-16T15:25:35;24.75;;;16.65;;
50872;SDS011;72604;40.088;18.346;2024-01-16T15:29:18;22.67;;;17.13;;
50872;SDS011;72604;40.088;18.346;2024-01-16T15:32:59;26.58;;;18.90;;
50872;SDS011;72604;40.088;18.346;2024-01-16T15:36:40;12.57;;;8.63;;
50872;SDS011;72604;40.088;18.346;2024-01-16T15:40:21;11.45;;;5.97;;
50872;SDS011;72604;40.088;18.346;2024-01-16T15:44:03;21.48;;;16.30;;
50872;SDS011;72604;40.088;18.346;2024-01-16T15:47:49;15.80;;;9.38;;
50872;SDS011;72604;40.088;18.346;2024-01-16T15:51:32;22.13;;;11.07;;
50872;SDS011;72604;40.088;18.346;2024-01-16T15:55:13;14.15;;;5.70;;
50872;SDS011;72604;40.088;18.346;2024-01-16T15:58:54;11.40;;;4.20;;
50872;SDS011;72604;40.088;18.346;2024-01-16T16:02:36;35.70;;;25.92;;
50872;SDS011;72604;40.088;18.346;2024-01-16T16:06:19;75.97;;;52.42;;
50872;SDS011;72604;40.088;18.346;2024-01-16T16:10:01;31.10;;;14.23;;
50872;SDS011;72604;40.088;18.346;2024-01-16T16:13:43;17.00;;;7.47;;
50872;SDS011;72604;40.088;18.346;2024-01-16T16:17:24;21.33;;;11.05;;
50872;SDS011;72604;40.088;18.346;2024-01-16T16:21:06;29.17;;;17.75;;
50872;SDS011;72604;40.088;18.346;2024-01-16T16:24:48;37.63;;;25.80;;
50872;SDS011;72604;40.088;18.346;2024-01-16T16:28:29;33.08;;;24.30;;
50872;SDS011;72604;40.088;18.346;2024-01-16T16:32:10;26.65;;;21.30;;
50872;SDS011;72604;40.088;18.346;2024-01-16T16:35:52;24.63;;;16.83;;
50872;SDS011;72604;40.088;18.346;2024-01-16T16:39:33;41.92;;;29.27;;
50872;SDS011;72604;40.088;18.346;2024-01-16T16:43:16;48.50;;;34.80;;
50872;SDS011;72604;40.088;18.346;2024-01-16T16:46:57;30.00;;;19.80;;
50872;SDS011;72604;40.088;18.346;2024-01-16T16:50:38;27.73;;;18.02;;
50872;SDS011;72604;40.088;18.346;2024-01-16T16:54:19;35.70;;;24.38;;
50872;SDS011;72604;40.088;18.346;2024-01-16T16:57:59;23.23;;;14.68;;
50872;SDS011;72604;40.088;18.346;2024-01-16T17:01:44;50.55;;;32.60;;
50872;SDS011;72604;40.088;18.346;2024-01-16T17:05:25;20.20;;;12.32;;
50872;SDS011;72604;40.088;18.346;2024-01-16T17:09:06;17.60;;;11.10;;
50872;SDS011;72604;40.088;18.346;2024-01-16T17:12:51;58.90;;;47.83;;
50872;SDS011;72604;40.088;18.346;2024-01-16T17:16:32;30.25;;;19.02;;
50872;SDS011;72604;40.088;18.346;2024-01-16T17:20:14;45.70;;;30.20;;
50872;SDS011;72604;40.088;18.346;2024-01-16T17:23:55;52.63;;;40.53;;
50872;SDS011;72604;40.088;18.346;2024-01-16T17:27:36;40.58;;;32.15;;
50872;SDS011;72604;40.088;18.346;2024-01-16T17:31:17;60.42;;;43.63;;
50872;SDS011;72604;40.088;18.346;2024-01-16T17:34:58;51.10;;;34.15;;
50872;SDS011;72604;40.088;18.346;2024-01-16T17:38:41;22.50;;;17.17;;
50872;SDS011;72604;40.088;18.346;2024-01-16T17:42:24;39.72;;;25.65;;
50872;SDS011;72604;40.088;18.346;2024-01-16T17:46:06;38.88;;;30.05;;
50872;SDS011;72604;40.088;18.346;2024-01-16T17:49:47;72.13;;;48.30;;
50872;SDS011;72604;40.088;18.346;2024-01-16T17:53:30;50.50;;;34.25;;
50872;SDS011;72604;40.088;18.346;2024-01-16T17:57:12;25.08;;;18.73;;
50872;SDS011;72604;40.088;18.346;2024-01-16T18:00:54;35.20;;;23.42;;
50872;SDS011;72604;40.088;18.346;2024-01-16T18:04:34;27.83;;;19.80;;
50872;SDS011;72604;40.088;18.346;2024-01-16T18:08:17;32.10;;;18.35;;
50872;SDS011;72604;40.088;18.346;2024-01-16T18:11:58;27.08;;;17.67;;
50872;SDS011;72604;40.088;18.346;2024-01-16T18:15:41;27.63;;;23.20;;
50872;SDS011;72604;40.088;18.346;2024-01-16T18:19:22;38.45;;;32.42;;
50872;SDS011;72604;40.088;18.346;2024-01-16T18:23:04;42.72;;;33.47;;
50872;SDS011;72604;40.088;18.346;2024-01-16T18:26:46;68.60;;;52.20;;
50872;SDS011;72604;40.088;18.346;2024-01-16T18:30:27;76.93;;;54.67;;
50872;SDS011;72604;40.088;18.346;2024-01-16T18:34:10;69.40;;;53.80;;
50872;SDS011;72604;40.088;18.346;2024-01-16T18:37:53;94.47;;;71.70;;
50872;SDS011;72604;40.088;18.346;2024-01-16T18:41:35;67.97;;;51.65;;
50872;SDS011;72604;40.088;18.346;2024-01-16T18:45:17;54.45;;;43.70;;
50872;SDS011;72604;40.088;18.346;2024-01-16T18:48:58;94.85;;;76.53;;
50872;SDS011;72604;40.088;18.346;2024-01-16T18:52:40;112.03;;;83.82;;
50872;SDS011;72604;40.088;18.346;2024-01-16T18:56:22;85.40;;;66.50;;
50872;SDS011;72604;40.088;18.346;2024-01-16T19:00:04;91.68;;;72.50;;
50872;SDS011;72604;40.088;18.346;2024-01-16T19:03:52;92.90;;;72.00;;
50872;SDS011;72604;40.088;18.346;2024-01-16T19:07:33;96.10;;;74.47;;
50872;SDS011;72604;40.088;18.346;2024-01-16T19:11:16;87.18;;;71.03;;
50872;SDS011;72604;40.088;18.346;2024-01-16T19:14:57;83.28;;;68.03;;
50872;SDS011;72604;40.088;18.346;2024-01-16T19:18:38;80.22;;;63.58;;
50872;SDS011;72604;40.088;18.346;2024-01-16T19:22:20;54.90;;;42.83;;
50872;SDS011;72604;40.088;18.346;2024-01-16T19:26:03;53.10;;;40.97;;
50872;SDS011;72604;40.088;18.346;2024-01-16T19:29:45;58.85;;;47.42;;
50872;SDS011;72604;40.088;18.346;2024-01-16T19:33:26;62.58;;;56.03;;
50872;SDS011;72604;40.088;18.346;2024-01-16T19:37:08;52.28;;;40.78;;
50872;SDS011;72604;40.088;18.346;2024-01-16T19:40:49;52.20;;;42.40;;
50872;SDS011;72604;40.088;18.346;2024-01-16T19:44:31;70.57;;;57.78;;
50872;SDS011;72604;40.088;18.346;2024-01-16T19:48:13;83.10;;;68.30;;
50872;SDS011;72604;40.088;18.346;2024-01-16T19:51:54;90.55;;;70.90;;
50872;SDS011;72604;40.088;18.346;2024-01-16T19:55:37;79.72;;;63.33;;
50872;SDS011;72604;40.088;18.346;2024-01-16T19:59:19;59.08;;;48.80;;
50872;SDS011;72604;40.088;18.346;2024-01-16T20:03:00;81.28;;;65.53;;
50872;SDS011;72604;40.088;18.346;2024-01-16T20:06:42;96.07;;;69.97;;
50872;SDS011;72604;40.088;18.346;2024-01-16T20:10:25;80.90;;;62.05;;
50872;SDS011;72604;40.088;18.346;2024-01-16T20:14:07;78.85;;;62.53;;
50872;SDS011;72604;40.088;18.346;2024-01-16T20:17:49;80.65;;;66.45;;
50872;SDS011;72604;40.088;18.346;2024-01-16T20:21:34;82.10;;;65.47;;
50872;SDS011;72604;40.088;18.346;2024-01-16T20:25:16;96.90;;;73.18;;
50872;SDS011;72604;40.088;18.346;2024-01-16T20:28:58;73.57;;;59.88;;
50872;SDS011;72604;40.088;18.346;2024-01-16T20:32:40;70.25;;;56.80;;
50872;SDS011;72604;40.088;18.346;2024-01-16T20:36:21;83.25;;;68.45;;
50872;SDS011;72604;40.088;18.346;2024-01-16T20:40:03;97.65;;;86.60;;
50872;SDS011;72604;40.088;18.346;2024-01-16T20:43:46;70.75;;;56.08;;
50872;SDS011;72604;40.088;18.346;2024-01-16T20:47:27;67.13;;;53.83;;
50872;SDS011;72604;40.088;18.346;2024-01-16T20:51:08;65.55;;;52.00;;
50872;SDS011;72604;40.088;18.346;2024-01-16T20:54:54;68.25;;;53.88;;
50872;SDS011;72604;40.088;18.346;2024-01-16T20:58:35;66.10;;;51.50;;
50872;SDS011;72604;40.088;18.346;2024-01-16T21:02:19;60.15;;;49.35;;
50872;SDS011;72604;40.088;18.346;2024-01-16T21:06:01;77.13;;;58.75;;
50872;SDS011;72604;40.088;18.346;2024-01-16T21:09:43;60.50;;;51.30;;
50872;SDS011;72604;40.088;18.346;2024-01-16T21:13:25;79.05;;;64.72;;
50872;SDS011;72604;40.088;18.346;2024-01-16T21:17:07;84.25;;;65.35;;
50872;SDS011;72604;40.088;18.346;2024-01-16T21:20:50;85.38;;;68.10;;
50872;SDS011;72604;40.088;18.346;2024-01-16T21:24:32;74.50;;;60.20;;
50872;SDS011;72604;40.088;18.346;2024-01-16T21:28:14;72.00;;;56.70;;
50872;SDS011;72604;40.088;18.346;2024-01-16T21:31:57;62.70;;;52.08;;